Terminal Aerodrome Forecast
Issued by NWS

Home | Current Version | Previous Version | Text Only | Print | Product List | Glossary On
Versions: 1 2 3 4 5 6 7 8 9 10 11 12 13 14
000
FTAK31 PAJN 272300
TAFAYA
TAF
PAYA 272325Z 2800/2824 10006KT P6SM VCSH BKN030 BKN060
      TEMPO 2800/2803 10008G18KT -SHRA BKN025 OVC050
     FM280300 VRB04KT P6SM SCT050 BKN100
     FM280800 VRB02KT P6SM FEW200
     FM281800 VRB05KT P6SM BKN100
      AMD LTD TO CLD VIS AND WIND 2801/2810=

USA.gov is the U.S. government's official web portal to all federal, state and local government web resources and services.